Miniplon — FIDV — position and weather

sailwx.info

Track history (hours):
 
Tides and Currents Weather Stations Pressure Air Temp Water Temp Dewpoint Dewpoint Depression Visibility Wind Speed Wind Dir Waves Ship Positions

Miniplon

Last reported at 2016-Dec-02 13:24 UTC. Time now 2016-Dec-03 13:43 UTC.
Position N 46°30' W 001°47'.

Type: SAR. MMSI: 228024600.

Date/timePositionNaut miles runAvg speedWind from/ knotsBaromVisibWave heightAir tempDewpointWater temp
2016-Dec-02 13:24N 46°30' W 001°47'2 2.9
2016-Dec-02 12:33N 46°29' W 001°51'10 9.8
2016-Dec-02 11:33N 46°35' W 002°02'16 2.2
2016-Dec-02 04:30N 46°44' W 002°21'0 0.0
2016-Dec-02 02:09N 46°44' W 002°21'0 0.0
2016-Dec-01 23:09N 46°44' W 002°21'0 0.0
2016-Dec-01 22:03N 46°44' W 002°21'13 0.3
2016-Nov-30 07:27N 46°43' W 002°02'9 9.8
2016-Nov-30 06:33N 46°36' W 001°56'9 9.1
2016-Nov-30 05:33N 46°29' W 001°48'1 1.3
2016-Nov-30 04:31N 46°30' W 001°47'0 0.0
2016-Nov-30 03:31N 46°30' W 001°47'0 0.0
2016-Nov-30 02:31N 46°30' W 001°47'0 0.0
2016-Nov-30 01:31N 46°30' W 001°47'0 0.0
2016-Nov-30 00:31N 46°30' W 001°47'0 0.0
2016-Nov-29 23:31N 46°30' W 001°47'0 0.0
2016-Nov-29 22:31N 46°30' W 001°47'0 0.0
2016-Nov-29 21:31N 46°30' W 001°47'0 0.0
2016-Nov-29 20:28N 46°30' W 001°47'0 0.0
2016-Nov-29 19:31N 46°30' W 001°47'0 0.0
2016-Nov-29 18:31N 46°30' W 001°47'0 0.0
2016-Nov-29 17:31N 46°30' W 001°47'0 0.0
2016-Nov-29 16:31N 46°30' W 001°47'0 0.0
2016-Nov-29 15:31N 46°30' W 001°47'0 0.0
2016-Nov-29 14:31N 46°30' W 001°47'0 0.0
2016-Nov-29 13:31N 46°30' W 001°47'0 0.0
2016-Nov-29 12:31N 46°30' W 001°47'0 0.0
2016-Nov-29 11:32N 46°30' W 001°47'0 0.0
2016-Nov-29 09:32N 46°30' W 001°47'0 0.0
2016-Nov-29 08:32N 46°30' W 001°47'0 0.0
2016-Nov-29 07:32N 46°30' W 001°47'0 0.0
2016-Nov-29 06:32N 46°30' W 001°47'0 0.0
2016-Nov-29 05:32N 46°30' W 001°47'0 0.0
2016-Nov-29 04:32N 46°30' W 001°47'0 0.0
2016-Nov-29 03:32N 46°30' W 001°47'0 0.0
2016-Nov-29 02:32N 46°30' W 001°47'0 0.0
2016-Nov-29 01:32N 46°30' W 001°47'0 0.0
2016-Nov-29 00:32N 46°30' W 001°47'0 0.0
2016-Nov-28 23:32N 46°30' W 001°47'0 0.0
2016-Nov-28 22:32N 46°30' W 001°47'0 0.0
2016-Nov-28 21:32N 46°30' W 001°47'0 0.0
2016-Nov-28 20:32N 46°30' W 001°47'0 0.0
2016-Nov-28 19:32N 46°30' W 001°47'0 0.0
2016-Nov-28 18:32N 46°30' W 001°47'0 0.0
2016-Nov-28 17:32N 46°30' W 001°47'0 0.0
2016-Nov-28 16:32N 46°30' W 001°47'0 0.0
2016-Nov-28 15:32N 46°30' W 001°47'0 0.0
2016-Nov-28 14:31N 46°30' W 001°47'0 0.3
2016-Nov-28 13:32N 46°30' W 001°48'0 0.3
2016-Nov-28 12:33N 46°30' W 001°47'0 0.0
2016-Nov-28 11:33N 46°30' W 001°47'0 0.0
2016-Nov-28 10:33N 46°30' W 001°47'0 0.0
2016-Nov-28 09:33N 46°30' W 001°47'0 0.0
2016-Nov-28 08:33N 46°30' W 001°47'0 0.0
2016-Nov-28 07:33N 46°30' W 001°47'0 0.0
2016-Nov-28 06:33N 46°30' W 001°47'0 0.0
2016-Nov-28 05:33N 46°30' W 001°47'0 0.0
2016-Nov-28 04:33N 46°30' W 001°47'0 0.0
2016-Nov-28 03:33N 46°30' W 001°47'0 0.0
2016-Nov-28 02:33N 46°30' W 001°47'0 0.0
2016-Nov-28 01:33N 46°30' W 001°47'0 0.0
2016-Nov-28 00:33N 46°30' W 001°47'0 0.0
2016-Nov-27 23:33N 46°30' W 001°47'0 0.0
2016-Nov-27 22:33N 46°30' W 001°47'0 0.0
2016-Nov-27 21:33N 46°30' W 001°47'0 0.0
2016-Nov-27 20:33N 46°30' W 001°47'0 0.0
2016-Nov-27 19:33N 46°30' W 001°47'0 0.0
2016-Nov-27 18:33N 46°30' W 001°47'0 0.0
2016-Nov-27 17:33N 46°30' W 001°47'0 0.0
2016-Nov-27 16:33N 46°30' W 001°47'0 0.0
2016-Nov-27 15:33N 46°30' W 001°47'0 0.0
2016-Nov-27 14:33N 46°30' W 001°47'0 0.0
2016-Nov-27 13:33N 46°30' W 001°47'0 0.0
2016-Nov-27 12:33N 46°30' W 001°47'0 0.0
2016-Nov-27 11:33N 46°30' W 001°47'0 0.0
2016-Nov-27 10:33N 46°30' W 001°47'0 0.0
2016-Nov-27 09:33N 46°30' W 001°47'0 0.0
2016-Nov-27 08:33N 46°30' W 001°47'0 0.0
2016-Nov-27 07:33N 46°30' W 001°47'0 0.0
2016-Nov-27 06:33N 46°30' W 001°47'0 0.0
2016-Nov-27 05:31N 46°30' W 001°47'0 0.0
2016-Nov-27 04:31N 46°30' W 001°47'0 0.0
2016-Nov-27 03:31N 46°30' W 001°47'0 0.0
2016-Nov-27 02:31N 46°30' W 001°47'0 0.0
2016-Nov-27 01:31N 46°30' W 001°47'0 0.0
2016-Nov-27 00:31N 46°30' W 001°47'0 0.0
2016-Nov-26 23:31N 46°30' W 001°47'0 0.0
2016-Nov-26 22:31N 46°30' W 001°47'0 0.0
2016-Nov-26 21:31N 46°30' W 001°47'0 0.0
2016-Nov-26 20:31N 46°30' W 001°47'0 0.0
2016-Nov-26 19:31N 46°30' W 001°47'0 0.0
2016-Nov-26 18:31N 46°30' W 001°47'0 0.0
2016-Nov-26 17:31N 46°30' W 001°47'0 0.0
2016-Nov-26 16:31N 46°30' W 001°47'0 0.0
2016-Nov-26 15:31N 46°30' W 001°47'0 0.0
2016-Nov-26 14:31N 46°30' W 001°47'0 0.0
2016-Nov-26 13:33N 46°30' W 001°47'0 0.0
2016-Nov-26 12:33N 46°30' W 001°47'0 0.0
2016-Nov-26 11:33N 46°30' W 001°47'0 0.0
2016-Nov-26 10:33N 46°30' W 001°47'0 0.0
2016-Nov-26 09:33N 46°30' W 001°47'0 0.0
2016-Nov-26 08:33N 46°30' W 001°47'0 0.0
2016-Nov-26 07:32N 46°30' W 001°47'0 0.0
2016-Nov-26 06:32N 46°30' W 001°47'0 0.0
2016-Nov-26 05:32N 46°30' W 001°47'0 0.0
2016-Nov-26 04:32N 46°30' W 001°47'0 0.0
2016-Nov-26 03:32N 46°30' W 001°47'0 0.0
2016-Nov-26 02:32N 46°30' W 001°47'0 0.0
2016-Nov-26 01:32N 46°30' W 001°47'0 0.0
2016-Nov-26 00:32N 46°30' W 001°47'0 0.0
2016-Nov-25 23:32N 46°30' W 001°47'0 0.0
2016-Nov-25 22:32N 46°30' W 001°47'0 0.0
2016-Nov-25 21:32N 46°30' W 001°47'0 0.0
2016-Nov-25 20:32N 46°30' W 001°47'0 0.0
2016-Nov-25 19:32N 46°30' W 001°47'0 0.0
2016-Nov-25 18:32N 46°30' W 001°47'0 0.0
2016-Nov-25 17:32N 46°30' W 001°47'0 0.0
2016-Nov-25 16:32N 46°30' W 001°47'0 0.0
2016-Nov-25 15:32N 46°30' W 001°47'0 0.0
2016-Nov-25 14:32N 46°30' W 001°47'0 0.0
2016-Nov-25 13:32N 46°30' W 001°47'0 0.0
2016-Nov-25 12:32N 46°30' W 001°47'0 0.0
2016-Nov-25 11:32N 46°30' W 001°47'0 0.0
2016-Nov-25 10:32N 46°30' W 001°47'0 0.0
2016-Nov-25 09:32N 46°30' W 001°47'0 0.0
2016-Nov-25 08:32N 46°30' W 001°47'0 0.0
2016-Nov-25 07:32N 46°30' W 001°47'0 0.0
2016-Nov-25 06:32N 46°30' W 001°47'0 0.0
2016-Nov-25 05:32N 46°30' W 001°47'0 0.0
2016-Nov-25 04:32N 46°30' W 001°47'0 0.0
2016-Nov-25 03:32N 46°30' W 001°47'0 0.0
2016-Nov-25 02:32N 46°30' W 001°47'0 0.0
2016-Nov-25 01:32N 46°30' W 001°47'0 0.0
2016-Nov-25 00:32N 46°30' W 001°47'0 0.0
2016-Nov-24 23:32N 46°30' W 001°47'0 0.0
2016-Nov-24 22:32N 46°30' W 001°47'0 0.0
2016-Nov-24 21:32N 46°30' W 001°47'0 0.0
2016-Nov-24 20:32N 46°30' W 001°47'0 0.0
2016-Nov-24 19:32N 46°30' W 001°47'0 0.0
2016-Nov-24 18:32N 46°30' W 001°47'0 0.0
2016-Nov-24 17:32N 46°30' W 001°47'0 0.0
2016-Nov-24 16:32N 46°30' W 001°47'0 0.0
2016-Nov-24 15:32N 46°30' W 001°47'0 0.0
2016-Nov-24 14:32N 46°30' W 001°47'0 0.0
2016-Nov-24 13:32N 46°30' W 001°47'0 0.0
2016-Nov-24 12:32N 46°30' W 001°47'0 0.0
2016-Nov-24 11:32N 46°30' W 001°47'0 0.0
2016-Nov-24 10:32N 46°30' W 001°47'0 0.0
2016-Nov-24 09:32N 46°30' W 001°47'0 0.0
2016-Nov-24 08:32N 46°30' W 001°47'  
Track history (hours):
 
Tides and Currents Weather Stations Pressure Air Temp Water Temp Dewpoint Dewpoint Depression Visibility Wind Speed Wind Dir Waves Ship Positions

Miniplon

Last reported at 2016-Dec-02 13:24 UTC. Time now 2016-Dec-03 13:43 UTC.
Position N 46°30' W 001°47'.

Type: SAR. MMSI: 228024600.

Date/timePositionNaut miles runAvg speedWind from/ knotsBaromVisibWave heightAir tempDewpointWater temp
2016-Dec-02 13:24N 46°30' W 001°47'2 2.9
2016-Dec-02 12:33N 46°29' W 001°51'10 9.8
2016-Dec-02 11:33N 46°35' W 002°02'16 2.2
2016-Dec-02 04:30N 46°44' W 002°21'0 0.0
2016-Dec-02 02:09N 46°44' W 002°21'0 0.0
2016-Dec-01 23:09N 46°44' W 002°21'0 0.0
2016-Dec-01 22:03N 46°44' W 002°21'13 0.3
2016-Nov-30 07:27N 46°43' W 002°02'9 9.8
2016-Nov-30 06:33N 46°36' W 001°56'9 9.1
2016-Nov-30 05:33N 46°29' W 001°48'1 1.3
2016-Nov-30 04:31N 46°30' W 001°47'0 0.0
2016-Nov-30 03:31N 46°30' W 001°47'0 0.0
2016-Nov-30 02:31N 46°30' W 001°47'0 0.0
2016-Nov-30 01:31N 46°30' W 001°47'0 0.0
2016-Nov-30 00:31N 46°30' W 001°47'0 0.0
2016-Nov-29 23:31N 46°30' W 001°47'0 0.0
2016-Nov-29 22:31N 46°30' W 001°47'0 0.0
2016-Nov-29 21:31N 46°30' W 001°47'0 0.0
2016-Nov-29 20:28N 46°30' W 001°47'0 0.0
2016-Nov-29 19:31N 46°30' W 001°47'0 0.0
2016-Nov-29 18:31N 46°30' W 001°47'0 0.0
2016-Nov-29 17:31N 46°30' W 001°47'0 0.0
2016-Nov-29 16:31N 46°30' W 001°47'0 0.0
2016-Nov-29 15:31N 46°30' W 001°47'0 0.0
2016-Nov-29 14:31N 46°30' W 001°47'0 0.0
2016-Nov-29 13:31N 46°30' W 001°47'0 0.0
2016-Nov-29 12:31N 46°30' W 001°47'0 0.0
2016-Nov-29 11:32N 46°30' W 001°47'0 0.0
2016-Nov-29 09:32N 46°30' W 001°47'0 0.0
2016-Nov-29 08:32N 46°30' W 001°47'0 0.0
2016-Nov-29 07:32N 46°30' W 001°47'0 0.0
2016-Nov-29 06:32N 46°30' W 001°47'0 0.0
2016-Nov-29 05:32N 46°30' W 001°47'0 0.0
2016-Nov-29 04:32N 46°30' W 001°47'0 0.0
2016-Nov-29 03:32N 46°30' W 001°47'0 0.0
2016-Nov-29 02:32N 46°30' W 001°47'0 0.0
2016-Nov-29 01:32N 46°30' W 001°47'0 0.0
2016-Nov-29 00:32N 46°30' W 001°47'0 0.0
2016-Nov-28 23:32N 46°30' W 001°47'0 0.0
2016-Nov-28 22:32N 46°30' W 001°47'0 0.0
2016-Nov-28 21:32N 46°30' W 001°47'0 0.0
2016-Nov-28 20:32N 46°30' W 001°47'0 0.0
2016-Nov-28 19:32N 46°30' W 001°47'0 0.0
2016-Nov-28 18:32N 46°30' W 001°47'0 0.0
2016-Nov-28 17:32N 46°30' W 001°47'0 0.0
2016-Nov-28 16:32N 46°30' W 001°47'0 0.0
2016-Nov-28 15:32N 46°30' W 001°47'0 0.0
2016-Nov-28 14:31N 46°30' W 001°47'0 0.3
2016-Nov-28 13:32N 46°30' W 001°48'0 0.3
2016-Nov-28 12:33N 46°30' W 001°47'0 0.0
2016-Nov-28 11:33N 46°30' W 001°47'0 0.0
2016-Nov-28 10:33N 46°30' W 001°47'0 0.0
2016-Nov-28 09:33N 46°30' W 001°47'0 0.0
2016-Nov-28 08:33N 46°30' W 001°47'0 0.0
2016-Nov-28 07:33N 46°30' W 001°47'0 0.0
2016-Nov-28 06:33N 46°30' W 001°47'0 0.0
2016-Nov-28 05:33N 46°30' W 001°47'0 0.0
2016-Nov-28 04:33N 46°30' W 001°47'0 0.0
2016-Nov-28 03:33N 46°30' W 001°47'0 0.0
2016-Nov-28 02:33N 46°30' W 001°47'0 0.0
2016-Nov-28 01:33N 46°30' W 001°47'0 0.0
2016-Nov-28 00:33N 46°30' W 001°47'0 0.0
2016-Nov-27 23:33N 46°30' W 001°47'0 0.0
2016-Nov-27 22:33N 46°30' W 001°47'0 0.0
2016-Nov-27 21:33N 46°30' W 001°47'0 0.0
2016-Nov-27 20:33N 46°30' W 001°47'0 0.0
2016-Nov-27 19:33N 46°30' W 001°47'0 0.0
2016-Nov-27 18:33N 46°30' W 001°47'0 0.0
2016-Nov-27 17:33N 46°30' W 001°47'0 0.0
2016-Nov-27 16:33N 46°30' W 001°47'0 0.0
2016-Nov-27 15:33N 46°30' W 001°47'0 0.0
2016-Nov-27 14:33N 46°30' W 001°47'0 0.0
2016-Nov-27 13:33N 46°30' W 001°47'0 0.0
2016-Nov-27 12:33N 46°30' W 001°47'0 0.0
2016-Nov-27 11:33N 46°30' W 001°47'0 0.0
2016-Nov-27 10:33N 46°30' W 001°47'0 0.0
2016-Nov-27 09:33N 46°30' W 001°47'0 0.0
2016-Nov-27 08:33N 46°30' W 001°47'0 0.0
2016-Nov-27 07:33N 46°30' W 001°47'0 0.0
2016-Nov-27 06:33N 46°30' W 001°47'0 0.0
2016-Nov-27 05:31N 46°30' W 001°47'0 0.0
2016-Nov-27 04:31N 46°30' W 001°47'0 0.0
2016-Nov-27 03:31N 46°30' W 001°47'0 0.0
2016-Nov-27 02:31N 46°30' W 001°47'0 0.0
2016-Nov-27 01:31N 46°30' W 001°47'0 0.0
2016-Nov-27 00:31N 46°30' W 001°47'0 0.0
2016-Nov-26 23:31N 46°30' W 001°47'0 0.0
2016-Nov-26 22:31N 46°30' W 001°47'0 0.0
2016-Nov-26 21:31N 46°30' W 001°47'0 0.0
2016-Nov-26 20:31N 46°30' W 001°47'0 0.0
2016-Nov-26 19:31N 46°30' W 001°47'0 0.0
2016-Nov-26 18:31N 46°30' W 001°47'0 0.0
2016-Nov-26 17:31N 46°30' W 001°47'0 0.0
2016-Nov-26 16:31N 46°30' W 001°47'0 0.0
2016-Nov-26 15:31N 46°30' W 001°47'0 0.0
2016-Nov-26 14:31N 46°30' W 001°47'0 0.0
2016-Nov-26 13:33N 46°30' W 001°47'0 0.0
2016-Nov-26 12:33N 46°30' W 001°47'0 0.0
2016-Nov-26 11:33N 46°30' W 001°47'0 0.0
2016-Nov-26 10:33N 46°30' W 001°47'0 0.0
2016-Nov-26 09:33N 46°30' W 001°47'0 0.0
2016-Nov-26 08:33N 46°30' W 001°47'0 0.0
2016-Nov-26 07:32N 46°30' W 001°47'0 0.0
2016-Nov-26 06:32N 46°30' W 001°47'0 0.0
2016-Nov-26 05:32N 46°30' W 001°47'0 0.0
2016-Nov-26 04:32N 46°30' W 001°47'0 0.0
2016-Nov-26 03:32N 46°30' W 001°47'0 0.0
2016-Nov-26 02:32N 46°30' W 001°47'0 0.0
2016-Nov-26 01:32N 46°30' W 001°47'0 0.0
2016-Nov-26 00:32N 46°30' W 001°47'0 0.0
2016-Nov-25 23:32N 46°30' W 001°47'0 0.0
2016-Nov-25 22:32N 46°30' W 001°47'0 0.0
2016-Nov-25 21:32N 46°30' W 001°47'0 0.0
2016-Nov-25 20:32N 46°30' W 001°47'0 0.0
2016-Nov-25 19:32N 46°30' W 001°47'0 0.0
2016-Nov-25 18:32N 46°30' W 001°47'0 0.0
2016-Nov-25 17:32N 46°30' W 001°47'0 0.0
2016-Nov-25 16:32N 46°30' W 001°47'0 0.0
2016-Nov-25 15:32N 46°30' W 001°47'0 0.0
2016-Nov-25 14:32N 46°30' W 001°47'0 0.0
2016-Nov-25 13:32N 46°30' W 001°47'0 0.0
2016-Nov-25 12:32N 46°30' W 001°47'0 0.0
2016-Nov-25 11:32N 46°30' W 001°47'0 0.0
2016-Nov-25 10:32N 46°30' W 001°47'0 0.0
2016-Nov-25 09:32N 46°30' W 001°47'0 0.0
2016-Nov-25 08:32N 46°30' W 001°47'0 0.0
2016-Nov-25 07:32N 46°30' W 001°47'0 0.0
2016-Nov-25 06:32N 46°30' W 001°47'0 0.0
2016-Nov-25 05:32N 46°30' W 001°47'0 0.0
2016-Nov-25 04:32N 46°30' W 001°47'0 0.0
2016-Nov-25 03:32N 46°30' W 001°47'0 0.0
2016-Nov-25 02:32N 46°30' W 001°47'0 0.0
2016-Nov-25 01:32N 46°30' W 001°47'0 0.0
2016-Nov-25 00:32N 46°30' W 001°47'0 0.0
2016-Nov-24 23:32N 46°30' W 001°47'0 0.0
2016-Nov-24 22:32N 46°30' W 001°47'0 0.0
2016-Nov-24 21:32N 46°30' W 001°47'0 0.0
2016-Nov-24 20:32N 46°30' W 001°47'0 0.0
2016-Nov-24 19:32N 46°30' W 001°47'0 0.0
2016-Nov-24 18:32N 46°30' W 001°47'0 0.0
2016-Nov-24 17:32N 46°30' W 001°47'0 0.0
2016-Nov-24 16:32N 46°30' W 001°47'0 0.0
2016-Nov-24 15:32N 46°30' W 001°47'0 0.0
2016-Nov-24 14:32N 46°30' W 001°47'0 0.0
2016-Nov-24 13:32N 46°30' W 001°47'0 0.0
2016-Nov-24 12:32N 46°30' W 001°47'0 0.0
2016-Nov-24 11:32N 46°30' W 001°47'0 0.0
2016-Nov-24 10:32N 46°30' W 001°47'0 0.0
2016-Nov-24 09:32N 46°30' W 001°47'0 0.0
2016-Nov-24 08:32N 46°30' W 001°47'  

Dump ship's entire track history